Cheshire, Connecticut
Current Conditions -  °F | °C
As of 7:53 PM on Saturday 22 Nov 2014 (Local Time) from KMMK Reporting Station
Broken Clouds Broken Clouds  
Wind Chill: 37°   Ceiling: 5500
Heat Index: 42°   Visibility: 10mi
Dew Point: 17°   Wind: 8mph
Humidity: 37%   Direction: 210°SSW
Pressure: 30.18"   Gusts: 17mph
Location:  41.5°N, 72.9°W
Report Text: KMMK 230053Z AUTO 21007G15KT 10SM SCT038 BKN055 06/M08 A3018 RMK AO2 SLP221 T00561083 TSNO
Loading
Personal Weather Stations






























Interactive Weather Map New forecast layout! Learn more

10-Day Weather Forecast

Advertisements
Track Severe Weather on mobile